Time;durP1;ratioP1;P1;durP2;ratioP2;P2;SDS_P1;SDS_P2;PMS_P1;PMS_P2;Temp;Humidity;BMP_temperature;BMP_pressure;BME280_temperature;BME280_humidity;BME280_pressure;Samples;Min_cycle;Max_cycle;Signal;HPM_P1;HPM_P2
2023/09/13 00:00:49;;;;;;;;;;;;;;;25.41;100.00;97577.22;5120079;28;19948;-78
2023/09/13 00:03:16;;;;;;;;;;;;;;;25.51;100.00;97574.66;5106926;28;19948;-78
2023/09/13 00:05:43;;;;;;;;;;;;;;;25.57;100.00;97573.19;5107572;28;19959;-78
2023/09/13 00:08:09;;;;;;;;;;;;;;;25.61;100.00;97574.03;5122655;28;19983;-78
2023/09/13 00:10:36;;;;;;;;;;;;;;;25.60;100.00;97569.72;5121977;28;19920;-78
2023/09/13 00:13:02;;;;;;;;;;;;;;;25.61;100.00;97573.25;5123705;28;19950;-78
2023/09/13 00:15:29;;;;;;;;;;;;;;;25.63;100.00;97568.97;5121212;28;20499;-78
2023/09/13 00:17:56;;;;;;;;;;;;;;;25.63;100.00;97576.38;5095797;28;19955;-78
2023/09/13 00:20:23;;;;;;;;;;;;;;;25.61;100.00;97575.97;5125187;28;19955;-78
2023/09/13 00:22:49;;;;;;;;;;;;;;;25.61;100.00;97579.50;5106807;28;19955;-77
2023/09/13 00:25:15;;;;;;;;;;;;;;;25.62;100.00;97577.56;5121056;28;19924;-78
2023/09/13 00:27:42;;;;;;;;;;;;;;;25.62;100.00;97572.91;5101372;28;19931;-78
2023/09/13 00:30:10;;;;;;;;;;;;;;;25.57;100.00;97575.94;5103397;28;19924;-78
2023/09/13 00:32:36;;;;;;;;;;;;;;;25.52;100.00;97587.19;5122533;28;19958;-78
2023/09/13 00:35:04;;;;;;;;;;;;;;;25.53;100.00;97585.25;5121242;28;19924;-78
2023/09/13 00:37:31;;;;;;;;;;;;;;;25.56;100.00;97593.47;5100880;28;19939;-78
2023/09/13 00:39:57;;;;;;;;;;;;;;;25.51;100.00;97601.22;5120028;28;19921;-78
2023/09/13 00:42:23;;;;;;;;;;;;;;;25.51;100.00;97596.53;5122338;28;19930;-80
2023/09/13 00:44:51;;;;;;;;;;;;;;;25.56;100.00;97582.53;5104473;28;19928;-79
2023/09/13 00:47:17;;;;;;;;;;;;;;;25.22;100.00;97591.78;5109411;28;19973;-78
2023/09/13 00:49:44;;;;;;;;;;;;;;;25.10;100.00;97581.00;5119254;28;19946;-78
2023/09/13 00:52:12;;;;;;;;;;;;;;;25.13;100.00;97577.53;5103579;28;19935;-78
2023/09/13 00:54:39;;;;;;;;;;;;;;;25.24;100.00;97581.25;5104484;28;20589;-78
2023/09/13 00:57:05;;;;;;;;;;;;;;;24.75;100.00;97588.56;5102263;28;19923;-78
2023/09/13 00:59:32;;;;;;;;;;;;;;;24.84;100.00;97583.69;5118918;28;19924;-78
2023/09/13 01:01:58;;;;;;;;;;;;;;;24.99;100.00;97580.06;5119716;28;19931;-78
2023/09/13 01:04:24;;;;;;;;;;;;;;;24.91;100.00;97583.81;5104418;28;19931;-78
2023/09/13 01:06:51;;;;;;;;;;;;;;;24.87;100.00;97582.97;5122374;28;20654;-78
2023/09/13 01:09:19;;;;;;;;;;;;;;;24.95;100.00;97588.19;5117600;28;19924;-78
2023/09/13 01:11:45;;;;;;;;;;;;;;;25.10;100.00;97589.19;5118945;28;20198;-77
2023/09/13 01:14:12;;;;;;;;;;;;;;;25.18;100.00;97588.19;5122029;28;19927;-78
2023/09/13 01:16:45;;;;;;;;;;;;;;;25.22;100.00;97589.03;5117151;28;19920;-79
2023/09/13 01:19:20;;;;;;;;;;;;;;;25.05;100.00;97589.53;5098379;28;19920;-78
2023/09/13 01:21:59;;;;;;;;;;;;;;;24.92;100.00;97601.78;5127220;28;19919;-78
2023/09/13 01:24:46;;;;;;;;;;;;;;;24.96;100.00;97597.16;5122358;28;19966;-78
2023/09/13 01:27:19;;;;;;;;;;;;;;;24.99;100.00;97586.31;5126878;28;19908;-78
2023/09/13 01:30:13;;;;;;;;;;;;;;;25.07;100.00;97593.47;5126392;28;19945;-78
2023/09/13 01:32:39;;;;;;;;;;;;;;;25.13;100.00;97599.41;5123983;28;19958;-78
2023/09/13 01:35:06;;;;;;;;;;;;;;;25.14;100.00;97593.59;5107626;28;19920;-78
2023/09/13 01:37:46;;;;;;;;;;;;;;;25.13;100.00;97593.94;5107639;28;19924;-78
2023/09/13 01:40:12;;;;;;;;;;;;;;;25.14;100.00;97592.78;5121270;28;19935;-78
2023/09/13 01:42:50;;;;;;;;;;;;;;;25.17;100.00;97603.00;5102529;28;19924;-78
2023/09/13 01:45:23;;;;;;;;;;;;;;;25.14;100.00;97601.00;5110169;28;19976;-78
2023/09/13 01:47:50;;;;;;;;;;;;;;;25.13;100.00;97597.47;5092291;28;19925;-78
2023/09/13 01:50:18;;;;;;;;;;;;;;;25.01;100.00;97594.91;5118631;28;19931;-79
2023/09/13 01:52:44;;;;;;;;;;;;;;;24.89;100.00;97603.28;5118352;28;19924;-79
2023/09/13 01:55:10;;;;;;;;;;;;;;;24.95;100.00;97601.03;5121335;28;19924;-79
2023/09/13 01:57:37;;;;;;;;;;;;;;;24.97;100.00;97609.69;5121910;28;19958;-79
2023/09/13 02:00:05;;;;;;;;;;;;;;;25.05;100.00;97616.84;5102064;28;19920;-79
2023/09/13 02:02:33;;;;;;;;;;;;;;;25.05;100.00;97601.25;5118650;28;19991;-79
2023/09/13 02:04:59;;;;;;;;;;;;;;;25.05;100.00;97605.91;5101613;28;19928;-79
2023/09/13 02:07:33;;;;;;;;;;;;;;;25.07;100.00;97611.78;5104239;28;19962;-79
2023/09/13 02:10:16;;;;;;;;;;;;;;;25.00;100.00;97607.03;5121612;28;19924;-79
2023/09/13 02:12:43;;;;;;;;;;;;;;;25.00;100.00;97617.16;5103783;28;19924;-79
2023/09/13 02:15:27;;;;;;;;;;;;;;;24.99;100.00;97602.69;5103573;28;19920;-78
2023/09/13 02:17:57;;;;;;;;;;;;;;;25.01;100.00;97603.13;5113559;28;19924;-78
2023/09/13 02:20:28;;;;;;;;;;;;;;;25.01;100.00;97605.84;5125231;28;19924;-79
2023/09/13 02:22:54;;;;;;;;;;;;;;;25.02;100.00;97606.66;5124547;28;19987;-79
2023/09/13 02:25:20;;;;;;;;;;;;;;;24.99;100.00;97599.97;5122133;28;19927;-79
2023/09/13 02:27:48;;;;;;;;;;;;;;;25.00;100.00;97608.97;5121503;28;19919;-79
2023/09/13 02:30:17;;;;;;;;;;;;;;;25.00;100.00;97612.50;5124757;28;19923;-79
2023/09/13 02:32:43;;;;;;;;;;;;;;;24.99;100.00;97619.09;5125050;28;19931;-79
2023/09/13 02:35:14;;;;;;;;;;;;;;;24.96;100.00;97608.91;5122145;28;19928;-78
2023/09/13 02:37:40;;;;;;;;;;;;;;;24.94;100.00;97622.13;5103351;28;19924;-78
2023/09/13 02:40:09;;;;;;;;;;;;;;;24.91;100.00;97619.34;5105269;28;19970;-78
2023/09/13 02:42:35;;;;;;;;;;;;;;;24.85;100.00;97626.25;5106696;28;19935;-78
2023/09/13 02:45:03;;;;;;;;;;;;;;;24.82;100.00;97618.78;5102756;28;19924;-78
2023/09/13 02:47:29;;;;;;;;;;;;;;;24.81;100.00;97631.66;5074730;28;19928;-78
2023/09/13 02:49:55;;;;;;;;;;;;;;;24.78;100.00;97635.06;5100088;28;20525;-78
2023/09/13 02:52:30;;;;;;;;;;;;;;;24.79;100.00;97646.78;5104075;28;19970;-79
2023/09/13 02:54:57;;;;;;;;;;;;;;;24.79;100.00;97633.91;5085354;28;20325;-79
2023/09/13 02:57:23;;;;;;;;;;;;;;;24.80;100.00;97637.44;5082874;28;19920;-78
2023/09/13 02:59:50;;;;;;;;;;;;;;;24.79;100.00;97641.34;5100129;28;20539;-78
2023/09/13 03:02:16;;;;;;;;;;;;;;;24.79;100.00;97641.34;5078744;28;19924;-77
2023/09/13 03:04:43;;;;;;;;;;;;;;;24.81;100.00;97641.75;5105161;28;19995;-78
2023/09/13 03:07:09;;;;;;;;;;;;;;;24.83;100.00;97640.25;5118868;28;19959;-79
2023/09/13 03:09:37;;;;;;;;;;;;;;;24.82;100.00;97640.63;5101323;28;19935;-79
2023/09/13 03:12:05;;;;;;;;;;;;;;;24.82;100.00;97648.84;5084265;28;20000;-79
2023/09/13 03:14:31;;;;;;;;;;;;;;;24.78;100.00;97645.19;5103869;28;19927;-78
2023/09/13 03:16:58;;;;;;;;;;;;;;;24.79;100.00;97641.34;5094488;28;19964;-78
2023/09/13 03:19:24;;;;;;;;;;;;;;;24.80;100.00;97645.63;5099835;28;19942;-78
2023/09/13 03:21:52;;;;;;;;;;;;;;;24.76;100.00;97642.06;5082269;28;19971;-78
2023/09/13 03:24:18;;;;;;;;;;;;;;;24.71;100.00;97640.41;5104003;28;19935;-78
2023/09/13 03:26:46;;;;;;;;;;;;;;;24.73;100.00;97641.59;5087407;28;19924;-78
2023/09/13 03:31:53;;;;;;;;;;;;;;;24.63;100.00;97630.50;5107970;28;19920;-78
2023/09/13 03:34:19;;;;;;;;;;;;;;;24.62;100.00;97637.91;5110170;28;19916;-78
2023/09/13 03:36:46;;;;;;;;;;;;;;;24.66;100.00;97622.34;5086924;28;19966;-79
2023/09/13 03:39:13;;;;;;;;;;;;;;;24.65;100.00;97637.19;5100123;28;19924;-78
2023/09/13 03:41:39;;;;;;;;;;;;;;;24.51;100.00;97631.41;5081540;28;19920;-78
2023/09/13 03:44:23;;;;;;;;;;;;;;;24.53;100.00;97631.88;5101481;28;19958;-78
2023/09/13 03:46:50;;;;;;;;;;;;;;;24.55;100.00;97629.56;5084763;28;19924;-77
2023/09/13 03:49:16;;;;;;;;;;;;;;;24.53;100.00;97631.88;5099289;28;19924;-77
2023/09/13 03:51:42;;;;;;;;;;;;;;;24.56;100.00;97638.53;5099318;28;20041;-77
2023/09/13 03:54:09;;;;;;;;;;;;;;;24.52;100.00;97643.94;5101706;28;19931;-77
2023/09/13 03:56:37;;;;;;;;;;;;;;;24.53;100.00;97653.72;5103044;28;19943;-77
2023/09/13 03:59:03;;;;;;;;;;;;;;;24.48;100.00;97653.97;5083262;28;19928;-77
2023/09/13 04:01:31;;;;;;;;;;;;;;;24.42;100.00;97660.88;5099320;28;19929;-77
2023/09/13 04:03:57;;;;;;;;;;;;;;;24.41;100.00;97661.25;5100075;28;19960;-77
2023/09/13 04:06:24;;;;;;;;;;;;;;;24.45;100.00;97662.88;5102622;28;19946;-77
2023/09/13 04:08:50;;;;;;;;;;;;;;;24.44;100.00;97658.59;5093015;28;19963;-77
2023/09/13 04:11:16;;;;;;;;;;;;;;;24.47;100.00;97657.09;5081239;28;19966;-77
2023/09/13 04:13:43;;;;;;;;;;;;;;;24.49;100.00;97649.31;5098899;28;19929;-77
2023/09/13 04:16:13;;;;;;;;;;;;;;;24.50;100.00;97645.44;5098963;28;19924;-77
2023/09/13 04:19:12;;;;;;;;;;;;;;;24.47;100.00;97644.22;5098873;28;19959;-77
2023/09/13 04:21:41;;;;;;;;;;;;;;;24.45;100.00;97648.47;5080920;28;19971;-77
2023/09/13 04:24:08;;;;;;;;;;;;;;;24.42;100.00;97647.22;5101126;28;19924;-77
2023/09/13 04:26:34;;;;;;;;;;;;;;;24.40;100.00;97635.88;5084714;28;19946;-77
2023/09/13 04:29:02;;;;;;;;;;;;;;;24.45;100.00;97643.03;5082795;28;19979;-77
2023/09/13 04:31:29;;;;;;;;;;;;;;;24.46;100.00;97647.31;5080367;28;19931;-78
2023/09/13 04:33:55;;;;;;;;;;;;;;;24.44;100.00;97655.88;5098933;28;19970;-78
2023/09/13 04:36:23;;;;;;;;;;;;;;;24.41;100.00;97653.84;5102477;28;19924;-78
2023/09/13 04:39:08;;;;;;;;;;;;;;;24.33;100.00;97652.13;5081889;28;19950;-77
2023/09/13 04:41:39;;;;;;;;;;;;;;;24.17;100.00;97643.19;5098556;28;19925;-77
2023/09/13 04:44:05;;;;;;;;;;;;;;;24.23;100.00;97649.97;5100304;28;19931;-77
2023/09/13 04:46:32;;;;;;;;;;;;;;;24.27;100.00;97648.09;5084029;28;19934;-77
2023/09/13 04:48:58;;;;;;;;;;;;;;;24.32;100.00;97647.81;5083361;28;19950;-78
2023/09/13 04:51:26;;;;;;;;;;;;;;;24.16;100.00;97649.81;5098558;28;19924;-77
2023/09/13 04:53:53;;;;;;;;;;;;;;;24.05;100.00;97659.66;5098370;28;19929;-77
2023/09/13 04:56:20;;;;;;;;;;;;;;;24.08;100.00;97658.94;5118138;28;19924;-77
2023/09/13 04:58:48;;;;;;;;;;;;;;;24.15;100.00;97659.13;5102248;28;20427;-78
2023/09/13 05:01:16;;;;;;;;;;;;;;;24.21;100.00;97665.09;5098537;28;19924;-78
2023/09/13 05:03:44;;;;;;;;;;;;;;;24.26;100.00;97684.75;5080439;28;19984;-78
2023/09/13 05:06:13;;;;;;;;;;;;;;;24.30;100.00;97676.59;5082769;28;19925;-78
2023/09/13 05:08:41;;;;;;;;;;;;;;;24.03;100.00;97681.06;5101579;28;19970;-78
2023/09/13 05:11:07;;;;;;;;;;;;;;;24.03;100.00;97681.84;5081244;28;19924;-78
2023/09/13 05:13:34;;;;;;;;;;;;;;;23.76;100.00;97684.72;5098116;28;19971;-78
2023/09/13 05:16:00;;;;;;;;;;;;;;;24.14;100.00;97685.63;5097733;28;19962;-78
2023/09/13 05:18:26;;;;;;;;;;;;;;;24.23;100.00;97687.38;5079914;28;19959;-78
2023/09/13 05:20:53;;;;;;;;;;;;;;;24.30;100.00;97692.97;5083694;28;19924;-78
2023/09/13 05:23:19;;;;;;;;;;;;;;;24.33;100.00;97701.25;5101670;28;19924;-78
2023/09/13 05:25:48;;;;;;;;;;;;;;;24.34;100.00;97700.09;5084166;28;19954;-78
2023/09/13 05:28:17;;;;;;;;;;;;;;;24.40;100.00;97701.41;5082784;28;19947;-78
2023/09/13 05:30:46;;;;;;;;;;;;;;;24.42;100.00;97704.56;5081974;28;19924;-78
2023/09/13 05:33:13;;;;;;;;;;;;;;;24.35;100.00;97706.34;5084804;28;19931;-78
2023/09/13 05:35:39;;;;;;;;;;;;;;;24.32;100.00;97712.53;5101879;28;19924;-77
2023/09/13 05:38:05;;;;;;;;;;;;;;;24.20;100.00;97718.13;5082016;28;19952;-77
2023/09/13 05:40:33;;;;;;;;;;;;;;;24.17;100.00;97719.59;5080494;28;19960;-78
2023/09/13 05:43:06;;;;;;;;;;;;;;;23.97;100.00;97726.94;5101431;28;20519;-78
2023/09/13 05:45:32;;;;;;;;;;;;;;;23.85;100.00;97731.69;5083041;28;19925;-77
2023/09/13 05:47:59;;;;;;;;;;;;;;;23.80;100.00;97735.47;5103743;28;20788;-77
2023/09/13 05:50:26;;;;;;;;;;;;;;;23.88;100.00;97733.72;5088564;28;20295;-77
2023/09/13 05:52:52;;;;;;;;;;;;;;;24.20;100.00;97750.84;5108044;28;19931;-77
2023/09/13 05:55:19;;;;;;;;;;;;;;;24.31;100.00;97754.59;5108964;28;19946;-77
2023/09/13 05:57:46;;;;;;;;;;;;;;;24.50;100.00;97760.09;5092151;28;19946;-77
2023/09/13 06:00:17;;;;;;;;;;;;;;;24.60;100.00;97756.81;5094940;28;19927;-77
2023/09/13 06:02:44;;;;;;;;;;;;;;;24.65;100.00;97760.06;5109127;28;19947;-77
2023/09/13 06:05:12;;;;;;;;;;;;;;;24.60;100.00;97771.25;5084279;28;20024;-77
2023/09/13 06:07:40;;;;;;;;;;;;;;;24.55;100.00;97771.53;5083233;28;19924;-78
2023/09/13 06:10:07;;;;;;;;;;;;;;;24.58;100.00;97776.28;5085970;28;19921;-79
2023/09/13 06:12:33;;;;;;;;;;;;;;;24.55;100.00;97771.53;5087819;28;19959;-78
2023/09/13 06:15:00;;;;;;;;;;;;;;;24.44;100.00;97773.25;5104387;28;19974;-78
2023/09/13 06:17:32;;;;;;;;;;;;;;;24.52;100.00;97777.72;5076862;28;19951;-78
2023/09/13 06:19:58;;;;;;;;;;;;;;;24.55;100.00;97773.47;5101813;28;19927;-78
2023/09/13 06:22:25;;;;;;;;;;;;;;;24.56;100.00;97773.13;5101492;28;19928;-78
2023/09/13 06:24:51;;;;;;;;;;;;;;;24.39;100.00;97769.97;5101457;28;19932;-78
2023/09/13 06:27:19;;;;;;;;;;;;;;;24.46;100.00;97779.13;5096848;28;19924;-78
2023/09/13 06:29:46;;;;;;;;;;;;;;;24.32;100.00;97775.31;5104959;28;19924;-79
2023/09/13 06:32:13;;;;;;;;;;;;;;;24.36;100.00;97774.22;5101647;28;19928;-78
2023/09/13 06:34:43;;;;;;;;;;;;;;;24.45;100.00;97771.31;5101249;28;19924;-78
2023/09/13 06:37:09;;;;;;;;;;;;;;;24.36;100.00;97767.97;5104107;28;19959;-78
2023/09/13 06:39:35;;;;;;;;;;;;;;;24.33;100.00;97777.66;5087328;28;19938;-78
2023/09/13 06:42:12;;;;;;;;;;;;;;;24.11;100.00;97781.84;5085628;28;19931;-79
2023/09/13 06:44:40;;;;;;;;;;;;;;;24.15;100.00;97776.47;5083671;28;19920;-78
2023/09/13 06:47:06;;;;;;;;;;;;;;;24.20;100.00;97778.94;5093837;28;19936;-78
2023/09/13 06:49:33;;;;;;;;;;;;;;;24.23;100.00;97778.22;5101011;28;19947;-78
2023/09/13 06:52:00;;;;;;;;;;;;;;;24.21;100.00;97780.50;5102427;28;19924;-78
2023/09/13 06:54:27;;;;;;;;;;;;;;;24.29;100.00;97782.28;5086631;28;19958;-78
2023/09/13 06:56:53;;;;;;;;;;;;;;;24.37;100.00;97784.00;5086396;28;19931;-78
2023/09/13 06:59:20;;;;;;;;;;;;;;;24.36;100.00;97789.81;5100612;28;19924;-78
2023/09/13 07:01:46;;;;;;;;;;;;;;;24.42;100.00;97786.44;5100477;28;19924;-77
2023/09/13 07:04:13;;;;;;;;;;;;;;;24.44;100.00;97791.56;5085588;28;19974;-78
2023/09/13 07:06:39;;;;;;;;;;;;;;;24.54;100.00;97775.41;5086008;28;19924;-78
2023/09/13 07:09:07;;;;;;;;;;;;;;;24.17;100.00;97774.16;5102179;28;19924;-78
2023/09/13 07:11:33;;;;;;;;;;;;;;;24.15;100.00;97787.38;5082342;28;19924;-78
2023/09/13 07:14:00;;;;;;;;;;;;;;;24.18;100.00;97787.47;5083280;28;19960;-78
2023/09/13 07:16:26;;;;;;;;;;;;;;;24.26;100.00;97790.38;5098937;28;19943;-79
2023/09/13 07:18:54;;;;;;;;;;;;;;;24.34;100.00;97790.19;5100179;28;19964;-77
2023/09/13 07:21:20;;;;;;;;;;;;;;;24.37;100.00;97794.91;5082421;28;19934;-78
2023/09/13 07:23:47;;;;;;;;;;;;;;;24.39;100.00;97797.28;5099646;28;19925;-78
2023/09/13 07:26:15;;;;;;;;;;;;;;;24.48;100.00;97795.94;5084646;28;19931;-78
2023/09/13 07:28:41;;;;;;;;;;;;;;;24.51;100.00;97799.91;5093379;28;19931;-79
2023/09/13 07:31:11;;;;;;;;;;;;;;;24.40;100.00;97793.41;5099940;28;19959;-79
2023/09/13 07:33:49;;;;;;;;;;;;;;;24.45;100.00;97801.34;5081456;28;19924;-77
2023/09/13 07:36:16;;;;;;;;;;;;;;;24.51;100.00;97797.19;5102949;28;19931;-78
2023/09/13 07:38:44;;;;;;;;;;;;;;;24.50;100.00;97801.84;5085148;28;19928;-77
2023/09/13 07:41:21;;;;;;;;;;;;;;;24.52;100.00;97796.81;5089597;28;20025;-77
2023/09/13 07:44:05;;;;;;;;;;;;;;;24.49;100.00;97807.66;5098885;28;19932;-79
2023/09/13 07:46:32;;;;;;;;;;;;;;;24.60;100.00;97801.28;5090548;28;19930;-78
2023/09/13 07:49:14;;;;;;;;;;;;;;;24.71;100.00;97810.50;5099540;28;19977;-79
2023/09/13 07:51:40;;;;;;;;;;;;;;;24.73;100.00;97810.94;5099466;28;19924;-78
2023/09/13 07:54:07;;;;;;;;;;;;;;;24.79;100.00;97808.69;5101518;28;19960;-78
2023/09/13 07:56:37;;;;;;;;;;;;;;;24.65;100.00;97806.47;5102943;28;19932;-78
2023/09/13 07:59:03;;;;;;;;;;;;;;;24.91;100.00;97805.09;5083474;28;19934;-78
2023/09/13 08:01:30;;;;;;;;;;;;;;;24.95;100.00;97803.22;5099640;28;19960;-78
2023/09/13 08:03:56;;;;;;;;;;;;;;;25.04;100.00;97807.31;5081911;28;19985;-78
2023/09/13 08:06:23;;;;;;;;;;;;;;;25.11;100.00;97823.06;5102774;28;19950;-78
2023/09/13 08:08:52;;;;;;;;;;;;;;;25.15;100.00;97821.22;5103360;28;19924;-78
2023/09/13 08:11:20;;;;;;;;;;;;;;;25.13;100.00;97821.53;5095262;28;19935;-79
2023/09/13 08:13:48;;;;;;;;;;;;;;;25.08;100.00;97826.53;5103141;28;19924;-77
2023/09/13 08:16:14;;;;;;;;;;;;;;;25.04;100.00;97833.84;5078814;28;19987;-78
2023/09/13 08:18:40;;;;;;;;;;;;;;;24.97;100.00;97834.50;5085163;28;19924;-78
2023/09/13 08:21:20;;;;;;;;;;;;;;;25.13;100.00;97831.69;5081131;28;19996;-78
2023/09/13 08:23:48;;;;;;;;;;;;;;;25.14;100.00;97833.28;5099702;28;19999;-78
2023/09/13 08:26:16;;;;;;;;;;;;;;;25.08;100.00;97834.72;5102555;28;20318;-78
2023/09/13 08:28:45;;;;;;;;;;;;;;;25.00;100.00;97836.53;5084667;28;19946;-78
2023/09/13 08:31:27;;;;;;;;;;;;;;;24.98;100.00;97851.66;5099599;28;19924;-78
2023/09/13 08:33:53;;;;;;;;;;;;;;;25.08;100.00;97851.13;5099501;28;20613;-78
2023/09/13 08:36:20;;;;;;;;;;;;;;;25.07;100.00;97846.78;5084299;28;19928;-77
2023/09/13 08:38:46;;;;;;;;;;;;;;;25.10;100.00;97844.13;5118712;28;19955;-78
2023/09/13 08:41:17;;;;;;;;;;;;;;;25.07;100.00;97846.78;5100282;28;19929;-78
2023/09/13 08:43:46;;;;;;;;;;;;;;;24.99;100.00;97845.06;5081123;28;19924;-80
2023/09/13 08:46:15;;;;;;;;;;;;;;;24.71;100.00;97850.69;5084628;28;19928;-78
2023/09/13 08:48:42;;;;;;;;;;;;;;;24.63;100.00;97862.59;5103684;28;19931;-78
2023/09/13 08:51:09;;;;;;;;;;;;;;;24.61;100.00;97868.41;5082792;28;19935;-78
2023/09/13 08:53:36;;;;;;;;;;;;;;;24.67;100.00;97871.66;5104060;28;20248;-79
2023/09/13 08:56:05;;;;;;;;;;;;;;;24.82;100.00;97867.34;5090966;28;19943;-78
2023/09/13 08:58:31;;;;;;;;;;;;;;;24.83;100.00;97863.44;5110380;28;19912;-77
2023/09/13 09:00:59;;;;;;;;;;;;;;;24.65;100.00;97866.56;5091529;28;19920;-77
2023/09/13 09:03:45;;;;;;;;;;;;;;;24.64;100.00;97864.97;5083879;28;19928;-77
2023/09/13 09:06:12;;;;;;;;;;;;;;;24.76;100.00;97876.94;5101405;28;19956;-77
2023/09/13 09:08:39;;;;;;;;;;;;;;;24.79;100.00;97870.75;5084358;28;19925;-78
2023/09/13 09:11:06;;;;;;;;;;;;;;;24.72;100.00;97876.84;5100532;28;19928;-78
2023/09/13 09:13:34;;;;;;;;;;;;;;;24.77;100.00;97882.03;5081009;28;19931;-77
2023/09/13 09:16:01;;;;;;;;;;;;;;;24.69;100.00;97877.56;5097230;28;19924;-79
2023/09/13 09:18:43;;;;;;;;;;;;;;;24.72;100.00;97879.59;5083849;28;19924;-78
2023/09/13 09:21:13;;;;;;;;;;;;;;;24.66;100.00;97884.50;5088855;28;19946;-77
2023/09/13 09:23:40;;;;;;;;;;;;;;;24.74;100.00;97882.75;5088669;28;19924;-78
2023/09/13 09:26:08;;;;;;;;;;;;;;;24.61;100.00;97884.00;5086115;28;19934;-77
2023/09/13 09:28:34;;;;;;;;;;;;;;;24.61;100.00;97895.72;5084853;28;19925;-78
2023/09/13 09:31:02;;;;;;;;;;;;;;;24.61;100.00;97892.97;5101992;28;19931;-78
2023/09/13 09:33:29;;;;;;;;;;;;;;;24.57;100.00;97897.56;5105768;28;19924;-77
2023/09/13 09:35:58;;;;;;;;;;;;;;;24.62;100.00;97889.13;5087086;28;19924;-77
2023/09/13 09:38:25;;;;;;;;;;;;;;;24.77;100.00;97892.16;5102013;28;19932;-77
2023/09/13 09:40:55;;;;;;;;;;;;;;;24.67;100.00;97894.28;5084367;28;19924;-79
2023/09/13 09:43:22;;;;;;;;;;;;;;;24.88;100.00;97893.22;5087176;28;19962;-78
2023/09/13 09:45:50;;;;;;;;;;;;;;;25.01;100.00;97898.19;5079733;28;19951;-77
2023/09/13 09:48:16;;;;;;;;;;;;;;;24.99;100.00;97894.25;5095677;28;19928;-77
2023/09/13 09:50:45;;;;;;;;;;;;;;;24.98;100.00;97892.66;5087590;28;19924;-77
2023/09/13 09:53:13;;;;;;;;;;;;;;;24.88;100.00;97896.72;5102709;28;19924;-77
2023/09/13 09:55:40;;;;;;;;;;;;;;;24.81;100.00;97893.88;5101697;28;19924;-77
2023/09/13 09:58:07;;;;;;;;;;;;;;;24.93;100.00;97893.75;5103828;28;19928;-77
2023/09/13 10:00:43;;;;;;;;;;;;;;;24.90;100.00;97899.13;5103884;28;19950;-77
2023/09/13 10:03:15;;;;;;;;;;;;;;;25.10;100.00;97900.72;5102544;28;19931;-77
2023/09/13 10:05:50;;;;;;;;;;;;;;;25.11;100.00;97899.59;5083586;28;19925;-77
2023/09/13 10:08:18;;;;;;;;;;;;;;;25.22;100.00;97903.34;5104985;28;19955;-77
2023/09/13 10:10:44;;;;;;;;;;;;;;;25.20;100.00;97895.50;5104958;28;19924;-77
2023/09/13 10:13:14;;;;;;;;;;;;;;;25.13;100.00;97898.06;5102429;28;19927;-77
2023/09/13 10:15:40;;;;;;;;;;;;;;;25.22;100.00;97886.94;5083040;28;19924;-77
2023/09/13 10:18:07;;;;;;;;;;;;;;;25.15;100.00;97889.53;5092190;28;19928;-77
2023/09/13 10:20:35;;;;;;;;;;;;;;;25.39;100.00;97891.19;5086843;28;19932;-77
2023/09/13 10:23:02;;;;;;;;;;;;;;;25.47;100.00;97885.50;5103604;28;19920;-78
2023/09/13 10:25:32;;;;;;;;;;;;;;;25.47;100.00;97885.50;5083009;28;20331;-77
2023/09/13 10:28:01;;;;;;;;;;;;;;;25.39;100.00;97883.78;5101165;28;19929;-77
2023/09/13 10:30:28;;;;;;;;;;;;;;;25.59;100.00;97879.91;5104716;28;19924;-77
2023/09/13 10:32:57;;;;;;;;;;;;;;;25.57;100.00;97879.47;5104393;28;19924;-78
2023/09/13 10:35:24;;;;;;;;;;;;;;;25.57;100.00;97882.22;5083933;28;19955;-78
2023/09/13 10:37:52;;;;;;;;;;;;;;;25.37;100.00;97880.63;5102088;28;19951;-78
2023/09/13 10:40:22;;;;;;;;;;;;;;;25.36;100.00;97878.22;5088822;28;19935;-78
2023/09/13 10:42:50;;;;;;;;;;;;;;;25.25;100.00;97886.22;5125390;28;20554;-78
2023/09/13 10:45:18;;;;;;;;;;;;;;;25.28;100.00;97881.97;5092992;28;20463;-78
2023/09/13 10:47:46;;;;;;;;;;;;;;;25.23;100.00;97878.38;5092921;28;19932;-77
2023/09/13 10:50:14;;;;;;;;;;;;;;;25.14;100.00;97883.25;5101903;28;19927;-76
2023/09/13 10:52:41;;;;;;;;;;;;;;;25.27;100.00;97875.72;5099409;28;19930;-77
2023/09/13 10:55:09;;;;;;;;;;;;;;;25.29;100.00;97878.06;5102297;28;19920;-78
2023/09/13 10:57:36;;;;;;;;;;;;;;;25.09;100.00;97885.50;5099557;28;19924;-78
2023/09/13 11:00:08;;;;;;;;;;;;;;;25.23;100.00;97874.84;5084039;28;20012;-78
2023/09/13 11:02:35;;;;;;;;;;;;;;;25.43;100.00;97872.91;5104189;28;20027;-78
2023/09/13 11:05:02;;;;;;;;;;;;;;;25.64;100.00;97867.88;5102819;28;19935;-77
2023/09/13 11:07:28;;;;;;;;;;;;;;;25.71;100.00;97877.03;5082504;28;19925;-78
2023/09/13 11:10:03;;;;;;;;;;;;;;;25.88;100.00;97872.22;5100319;28;19925;-78
2023/09/13 11:12:30;;;;;;;;;;;;;;;25.92;100.00;97878.56;5103821;28;19924;-77
2023/09/13 11:14:56;;;;;;;;;;;;;;;25.91;100.00;97885.16;5085500;28;19924;-78
2023/09/13 11:17:38;;;;;;;;;;;;;;;25.82;100.00;97870.94;5091003;28;19925;-77
2023/09/13 11:20:24;;;;;;;;;;;;;;;25.79;100.00;97872.47;5082658;28;19955;-78
2023/09/13 11:23:00;;;;;;;;;;;;;;;25.76;100.00;97871.25;5082285;28;20524;-78
2023/09/13 11:25:30;;;;;;;;;;;;;;;25.71;100.00;97874.28;5100630;28;19928;-78
2023/09/13 11:27:57;;;;;;;;;;;;;;;25.64;100.00;97879.63;5083319;28;19928;-78
2023/09/13 11:30:45;;;;;;;;;;;;;;;25.68;100.00;97875.00;5103424;28;19924;-78
2023/09/13 11:33:13;;;;;;;;;;;;;;;25.74;100.00;97868.09;5102479;28;19912;-79
2023/09/13 11:35:40;;;;;;;;;;;;;;;25.73;100.00;97871.19;5102323;28;19924;-80
2023/09/13 11:38:08;;;;;;;;;;;;;;;25.73;100.00;97871.19;5102650;28;19931;-78
2023/09/13 11:40:34;;;;;;;;;;;;;;;25.77;100.00;97867.38;5104577;28;20000;-78
2023/09/13 11:43:01;;;;;;;;;;;;;;;25.57;100.00;97867.75;5102630;28;19920;-78
2023/09/13 11:45:28;;;;;;;;;;;;;;;25.55;100.00;97870.84;5082069;28;19996;-79
2023/09/13 11:47:55;;;;;;;;;;;;;;;25.72;100.00;97864.91;5087251;28;19924;-79
2023/09/13 11:50:23;;;;;;;;;;;;;;;25.83;100.00;97873.31;5103007;28;19924;-79
2023/09/13 11:53:07;;;;;;;;;;;;;;;25.91;100.00;97869.53;5103267;28;19928;-79
2023/09/13 11:55:37;;;;;;;;;;;;;;;25.83;100.00;97862.38;5086783;28;19930;-79
2023/09/13 11:58:04;;;;;;;;;;;;;;;26.10;100.00;97865.97;5100064;28;19924;-77
2023/09/13 12:00:30;;;;;;;;;;;;;;;26.15;99.49;97871.16;5099238;28;20638;-78
2023/09/13 12:02:57;;;;;;;;;;;;;;;26.19;98.65;97872.81;5099745;28;20030;-78
2023/09/13 12:05:26;;;;;;;;;;;;;;;26.39;95.16;97864.53;5085044;28;19924;-78
2023/09/13 12:07:56;;;;;;;;;;;;;;;26.44;95.03;97861.47;5102384;28;19924;-78
2023/09/13 12:10:29;;;;;;;;;;;;;;;26.44;94.64;97862.25;5081219;28;19924;-78
2023/09/13 12:12:55;;;;;;;;;;;;;;;26.52;90.41;97861.19;5099342;28;19924;-78
2023/09/13 12:15:25;;;;;;;;;;;;;;;26.41;93.18;97857.50;5099029;28;19932;-78
2023/09/13 12:17:51;;;;;;;;;;;;;;;26.58;91.85;97848.78;5090508;28;19965;-78
2023/09/13 12:20:17;;;;;;;;;;;;;;;26.63;87.11;97855.88;5084184;28;19928;-78
2023/09/13 12:22:46;;;;;;;;;;;;;;;26.62;89.61;97854.28;5102392;28;19925;-78
2023/09/13 12:25:13;;;;;;;;;;;;;;;26.69;87.44;97852.47;5100053;28;19959;-78
2023/09/13 12:27:40;;;;;;;;;;;;;;;26.81;88.13;97855.00;5080971;28;19925;-78
2023/09/13 12:30:07;;;;;;;;;;;;;;;26.76;87.18;97857.25;5082678;28;19924;-78
2023/09/13 12:32:33;;;;;;;;;;;;;;;26.74;82.02;97849.41;5084463;28;19924;-78
2023/09/13 12:35:00;;;;;;;;;;;;;;;26.67;85.59;97854.78;5117218;28;20578;-79
2023/09/13 12:37:27;;;;;;;;;;;;;;;26.59;89.21;97864.03;5098603;28;19925;-78
2023/09/13 12:39:55;;;;;;;;;;;;;;;26.64;88.19;97855.53;5098687;28;19924;-78
2023/09/13 12:42:21;;;;;;;;;;;;;;;26.59;88.30;97855.81;5083428;28;19924;-78
2023/09/13 12:44:47;;;;;;;;;;;;;;;26.59;81.76;97846.81;5101154;28;19977;-78
2023/09/13 12:47:16;;;;;;;;;;;;;;;26.42;87.90;97856.38;5080997;28;19925;-78